Time;durP1;ratioP1;P1;durP2;ratioP2;P2;SDS_P1;SDS_P2;PMS_P1;PMS_P2;Temp;Humidity;BMP_temperature;BMP_pressure;BME280_temperature;BME280_humidity;BME280_pressure;Samples;Min_cycle;Max_cycle;Signal;HPM_P1;HPM_P2
2023/08/20 00:01:25;;;;;;;;;1.00;1.00;;;;;29.54;42.66;101943.72;5055760;28;45968;-75
2023/08/20 00:03:52;;;;;;;;;1.00;1.00;;;;;29.48;42.92;101934.66;5055634;28;45501;-75
2023/08/20 00:06:18;;;;;;;;;2.00;2.00;;;;;29.52;42.83;101939.41;5055499;28;45332;-75
2023/08/20 00:08:43;;;;;;;;;1.00;1.00;;;;;29.49;42.74;101934.44;5054540;28;45689;-75
2023/08/20 00:11:09;;;;;;;;;0.67;0.67;;;;;29.46;42.70;101932.16;5055405;28;46181;-76
2023/08/20 00:13:35;;;;;;;;;1.00;1.00;;;;;29.48;42.33;101932.81;5055690;28;45445;-75
2023/08/20 00:16:00;;;;;;;;;2.00;2.00;;;;;29.50;42.73;101935.28;5055725;28;45321;-76
2023/08/20 00:18:26;;;;;;;;;1.00;1.00;;;;;29.51;42.89;101931.53;5054774;28;45666;-76
2023/08/20 00:20:53;;;;;;;;;1.00;1.00;;;;;29.48;42.53;101926.63;5055491;28;46102;-76
2023/08/20 00:23:19;;;;;;;;;2.00;1.00;;;;;29.49;42.47;101926.41;5055502;27;45342;-76
2023/08/20 00:25:45;;;;;;;;;1.67;1.67;;;;;29.46;42.82;101923.31;5054769;28;45431;-76
2023/08/20 00:28:10;;;;;;;;;1.00;1.00;;;;;29.46;42.93;101918.75;5055517;28;45488;-76
2023/08/20 00:30:35;;;;;;;;;1.33;1.33;;;;;29.50;42.61;101929.91;5055440;28;45973;-76
2023/08/20 00:33:01;;;;;;;;;1.00;1.00;;;;;29.50;42.55;101930.75;5054677;28;45621;-76
2023/08/20 00:35:26;;;;;;;;;0.00;0.00;;;;;29.48;43.04;101922.09;5055686;28;45309;-76
2023/08/20 00:37:52;;;;;;;;;1.00;1.00;;;;;29.46;42.66;101917.97;5055360;28;45328;-76
2023/08/20 00:40:17;;;;;;;;;1.00;1.00;;;;;29.52;42.74;101931.34;5055227;28;45404;-75
2023/08/20 00:42:43;;;;;;;;;0.00;0.00;;;;;29.51;42.70;101927.00;5055384;28;45305;-75
2023/08/20 00:45:08;;;;;;;;;0.50;0.50;;;;;29.50;42.66;101928.06;5058910;28;45486;-75
2023/08/20 00:47:34;;;;;;;;;0.67;0.67;;;;;29.50;42.55;101930.75;5058714;28;45456;-76
2023/08/20 00:50:00;;;;;;;;;1.00;1.00;;;;;29.45;42.53;101921.66;5058851;28;46280;-76
2023/08/20 00:52:25;;;;;;;;;0.00;0.00;;;;;29.51;42.67;101936.91;5042486;28;45444;-76
2023/08/20 00:54:51;;;;;;;;;0.67;0.67;;;;;29.49;42.67;101928.25;5058816;28;45388;-76
2023/08/20 00:57:22;;;;;;;;;1.00;1.00;;;;;29.51;42.73;101934.22;5058907;28;45301;-76
2023/08/20 00:59:50;;;;;;;;;0.67;0.67;;;;;29.51;42.56;101936.91;5057800;28;45429;-75
2023/08/20 01:02:17;;;;;;;;;1.00;1.00;;;;;29.49;42.67;101934.44;5058559;28;45575;-75
2023/08/20 01:04:45;;;;;;;;;1.00;1.00;;;;;29.45;42.69;101916.28;5057939;28;45354;-76
2023/08/20 01:07:40;;;;;;;;;2.00;2.00;;;;;29.52;42.72;101931.34;5058490;28;45545;-75
2023/08/20 01:10:35;;;;;;;;;0.33;0.33;;;;;29.48;42.54;101930.13;5051438;28;46504;-75
2023/08/20 01:13:01;;;;;;;;;1.00;1.00;;;;;29.34;42.52;101905.16;5078532;27;45222;-76
2023/08/20 01:15:26;;;;;;;;;1.33;1.33;;;;;29.43;42.57;101910.31;5078588;28;45366;-75
2023/08/20 01:17:51;;;;;;;;;4.00;3.00;;;;;29.50;42.70;101929.91;5078706;27;45399;-75
2023/08/20 01:20:17;;;;;;;;;0.67;0.67;;;;;29.48;42.62;101923.94;5060484;28;46991;-76
2023/08/20 01:23:02;;;;;;;;;1.67;1.00;;;;;29.52;42.57;101939.41;5078523;28;45359;-76
2023/08/20 01:26:05;;;;;;;;;0.33;0.33;;;;;29.52;42.72;101931.34;5078721;27;45819;-76
2023/08/20 01:28:31;;;;;;;;;1.33;1.00;;;;;29.44;42.53;101920.81;5078398;27;45470;-76
2023/08/20 01:30:59;;;;;;;;;1.00;1.00;;;;;29.50;42.46;101927.22;5059585;28;46973;-76
2023/08/20 01:33:25;;;;;;;;;1.00;1.00;;;;;29.51;42.67;101927.00;5078150;27;45435;-76
2023/08/20 01:35:54;;;;;;;;;0.33;0.33;;;;;29.53;42.71;101926.81;5060250;28;45368;-76
2023/08/20 01:38:19;;;;;;;;;0.33;0.33;;;;;29.52;42.56;101925.16;5060224;27;45317;-76
2023/08/20 01:40:45;;;;;;;;;1.00;1.00;;;;;29.51;42.53;101929.69;5078265;28;46672;-76
2023/08/20 01:43:10;;;;;;;;;1.67;1.00;;;;;29.44;42.58;101918.16;5059739;27;45435;-76
2023/08/20 01:45:36;;;;;;;;;0.33;0.33;;;;;29.48;42.67;101927.44;5078174;27;45348;-76
2023/08/20 01:48:01;;;;;;;;;0.00;0.00;;;;;29.49;42.92;101937.13;5077427;27;45653;-76
2023/08/20 01:50:27;;;;;;;;;0.00;0.00;;;;;29.47;42.72;101928.47;5078143;27;46507;-76
2023/08/20 01:52:52;;;;;;;;;0.00;0.00;;;;;29.49;42.31;101933.59;5059610;28;45429;-76
2023/08/20 01:55:17;;;;;;;;;1.00;1.00;;;;;29.45;42.28;101921.66;5076652;27;45338;-76
2023/08/20 01:57:43;;;;;;;;;0.33;0.33;;;;;29.49;42.63;101933.59;5077627;27;45541;-76
2023/08/20 02:00:09;;;;;;;;;0.00;0.00;;;;;29.49;42.55;101937.13;5078089;28;46098;-76
2023/08/20 02:02:34;;;;;;;;;0.33;0.33;;;;;29.49;42.52;101933.59;5077879;28;45384;-76
2023/08/20 02:05:00;;;;;;;;;1.00;1.00;;;;;29.45;42.66;101929.69;5077945;27;45328;-76
2023/08/20 02:07:25;;;;;;;;;0.00;0.00;;;;;29.46;42.84;101932.16;5077913;27;45383;-76
2023/08/20 02:09:51;;;;;;;;;1.00;1.00;;;;;29.46;42.61;101928.69;5077515;27;45493;-76
2023/08/20 02:12:16;;;;;;;;;1.00;1.00;;;;;29.43;42.37;101937.13;5077202;27;45936;-76
2023/08/20 02:14:41;;;;;;;;;1.00;1.00;;;;;29.49;42.59;101945.16;5059612;28;45375;-76
2023/08/20 02:17:08;;;;;;;;;2.00;1.00;;;;;29.51;42.49;101952.97;5059464;28;45419;-75
2023/08/20 02:19:33;;;;;;;;;0.67;0.67;;;;;29.47;42.58;101939.19;5076847;27;46287;-75
2023/08/20 02:21:58;;;;;;;;;2.00;1.00;;;;;29.48;42.05;101948.06;5059336;28;45273;-76
2023/08/20 02:24:24;;;;;;;;;0.67;0.33;;;;;29.50;42.41;101951.34;5059594;28;45371;-76
2023/08/20 02:26:49;;;;;;;;;2.33;2.33;;;;;29.50;42.62;101946.00;5059065;28;45499;-76
2023/08/20 02:29:15;;;;;;;;;0.33;0.33;;;;;29.49;42.67;101941.66;5076888;27;46446;-75
2023/08/20 02:31:40;;;;;;;;;1.00;1.00;;;;;29.46;42.68;101934.84;5077454;27;45383;-76
2023/08/20 02:34:05;;;;;;;;;1.00;0.00;;;;;29.50;42.24;101943.31;5077586;27;45951;-76
2023/08/20 02:36:31;;;;;;;;;0.67;0.67;;;;;29.48;42.62;101954.25;5077711;27;45428;-76
2023/08/20 02:38:56;;;;;;;;;2.00;0.00;;;;;29.47;42.50;101952.59;5077434;28;46286;-76
2023/08/20 02:41:21;;;;;;;;;1.00;1.00;;;;;29.49;42.56;101949.69;5076993;28;45432;-75
2023/08/20 02:43:47;;;;;;;;;1.00;1.00;;;;;29.49;42.52;101945.16;5077354;28;45729;-76
2023/08/20 02:46:13;;;;;;;;;0.67;0.00;;;;;29.49;42.26;101938.97;5059185;27;45470;-76
2023/08/20 02:48:39;;;;;;;;;1.00;1.00;;;;;29.50;42.76;101946.81;5076625;27;46320;-75
2023/08/20 02:51:04;;;;;;;;;1.00;1.00;;;;;29.48;42.62;101956.09;5058573;28;45399;-76
2023/08/20 02:53:29;;;;;;;;;1.00;1.00;;;;;29.46;42.52;101944.75;5076268;27;45505;-75
2023/08/20 02:55:56;;;;;;;;;0.33;0.33;;;;;29.49;42.75;101955.88;5058186;28;45585;-75
2023/08/20 02:58:21;;;;;;;;;1.00;1.00;;;;;29.49;42.43;101949.69;5076943;28;45332;-76
2023/08/20 03:00:47;;;;;;;;;0.00;0.00;;;;;29.49;42.31;101957.72;5076478;28;45310;-76
2023/08/20 03:03:12;;;;;;;;;0.67;0.00;;;;;29.46;42.62;101950.94;5058661;28;45458;-75
2023/08/20 03:05:38;;;;;;;;;0.33;0.33;;;;;29.48;42.50;101958.78;5076495;27;45261;-75
2023/08/20 03:08:03;;;;;;;;;2.00;2.00;;;;;29.48;42.70;101958.78;5076584;27;45648;-76
2023/08/20 03:10:29;;;;;;;;;0.00;0.00;;;;;29.50;42.52;101959.41;5076547;27;45331;-76
2023/08/20 03:12:55;;;;;;;;;1.00;1.00;;;;;29.43;43.08;101953.22;5076789;27;45288;-76
2023/08/20 03:15:20;;;;;;;;;1.00;1.00;;;;;29.48;42.62;101958.78;5058625;28;45340;-76
2023/08/20 03:17:46;;;;;;;;;0.00;0.00;;;;;29.48;42.35;101958.78;5076106;28;46561;-76
2023/08/20 03:20:11;;;;;;;;;0.00;0.00;;;;;29.50;42.73;101960.22;5075713;27;45239;-76
2023/08/20 03:22:38;;;;;;;;;0.67;0.67;;;;;29.47;42.02;101960.63;5058637;28;45553;-75
2023/08/20 03:25:04;;;;;;;;;0.00;0.00;;;;;29.50;42.35;101964.75;5076332;27;45313;-75
2023/08/20 03:27:30;;;;;;;;;0.00;0.00;;;;;29.45;42.39;101956.50;5058216;28;47330;-75
2023/08/20 03:29:55;;;;;;;;;0.00;0.00;;;;;29.47;42.78;101966.00;5058337;28;45888;-76
2023/08/20 03:32:21;;;;;;;;;1.00;1.00;;;;;29.48;42.29;101959.63;5058199;28;45410;-76
2023/08/20 03:34:47;;;;;;;;;0.33;0.33;;;;;29.46;42.89;101952.81;5076597;28;45368;-76
2023/08/20 03:37:12;;;;;;;;;0.00;0.00;;;;;29.45;42.34;101951.97;5075978;27;45416;-76
2023/08/20 03:39:38;;;;;;;;;0.00;0.00;;;;;29.48;42.64;101967.66;5076139;28;45338;-75
2023/08/20 03:42:04;;;;;;;;;0.00;0.00;;;;;29.43;42.45;101962.09;5076473;28;45288;-76
2023/08/20 03:44:30;;;;;;;;;1.00;1.00;;;;;29.44;42.55;101962.88;5058354;28;45603;-76
2023/08/20 03:46:56;;;;;;;;;0.00;0.00;;;;;29.43;42.57;101967.44;5076450;27;46394;-76
2023/08/20 03:49:22;;;;;;;;;0.00;0.00;;;;;29.46;42.69;101972.38;5076142;28;45395;-76
2023/08/20 03:51:47;;;;;;;;;0.67;0.67;;;;;29.48;42.26;101977.56;5057901;28;45512;-76
2023/08/20 03:54:13;;;;;;;;;3.00;1.00;;;;;29.42;42.53;101963.09;5057803;28;45477;-76
2023/08/20 03:56:38;;;;;;;;;1.00;1.00;;;;;29.45;42.59;101968.06;5074876;27;47196;-75
2023/08/20 03:59:03;;;;;;;;;1.00;1.00;;;;;29.44;42.28;101963.72;5057850;28;45278;-75
2023/08/20 04:01:29;;;;;;;;;0.00;0.00;;;;;29.43;42.43;101966.63;5074893;27;45441;-76
2023/08/20 04:03:54;;;;;;;;;1.00;0.00;;;;;29.43;42.56;101972.81;5076076;28;45549;-75
2023/08/20 04:06:19;;;;;;;;;0.33;0.33;;;;;29.32;42.50;101955.47;5074723;27;47235;-75
2023/08/20 04:08:45;;;;;;;;;0.00;0.00;;;;;29.45;42.79;101983.31;5075612;27;45485;-76
2023/08/20 04:11:10;;;;;;;;;1.00;1.00;;;;;29.42;42.59;101984.53;5058069;28;45333;-75
2023/08/20 04:13:36;;;;;;;;;1.67;1.00;;;;;29.41;42.40;101977.53;5075974;28;45309;-75
2023/08/20 04:16:01;;;;;;;;;1.00;1.00;;;;;29.45;42.51;101984.16;5075904;28;46022;-76
2023/08/20 04:18:26;;;;;;;;;0.67;0.67;;;;;29.40;42.15;101982.09;5076915;28;45308;-76
2023/08/20 04:20:53;;;;;;;;;1.00;1.00;;;;;29.47;42.43;101997.34;5061504;28;45267;-75
2023/08/20 04:23:19;;;;;;;;;1.67;1.67;;;;;29.42;42.46;101994.44;5079133;28;45527;-76
2023/08/20 04:25:44;;;;;;;;;2.00;0.00;;;;;29.42;42.21;101997.94;5079413;27;47173;-75
2023/08/20 04:28:11;;;;;;;;;1.00;1.00;;;;;29.38;42.12;101994.84;5078135;28;45347;-76
2023/08/20 04:30:36;;;;;;;;;0.00;0.00;;;;;29.40;42.56;102002.69;5079694;27;45401;-76
2023/08/20 04:33:02;;;;;;;;;0.00;0.00;;;;;29.39;42.24;101999.19;5077975;27;45627;-76
2023/08/20 04:35:27;;;;;;;;;2.00;0.33;;;;;29.39;42.55;101996.50;5078708;27;46404;-76
2023/08/20 04:37:53;;;;;;;;;1.00;1.00;;;;;29.40;42.31;101995.47;5078742;27;45823;-76
2023/08/20 04:40:18;;;;;;;;;1.00;1.00;;;;;29.42;42.32;102005.16;5061131;28;45422;-76
2023/08/20 04:42:44;;;;;;;;;1.00;1.00;;;;;29.37;42.33;101998.56;5077905;27;45352;-75
2023/08/20 04:45:10;;;;;;;;;0.00;0.00;;;;;29.42;42.36;102003.31;5079200;27;45849;-76
2023/08/20 04:47:36;;;;;;;;;0.67;0.67;;;;;29.44;42.51;102006.59;5079271;28;45414;-76
2023/08/20 04:50:02;;;;;;;;;0.33;0.33;;;;;29.44;41.97;101989.69;5061229;28;45441;-76
2023/08/20 04:52:27;;;;;;;;;1.00;1.00;;;;;29.41;42.20;101988.25;5078447;27;45467;-76
2023/08/20 04:54:53;;;;;;;;;0.00;0.00;;;;;29.41;42.26;101993.59;5060655;28;46853;-76
2023/08/20 04:57:18;;;;;;;;;1.00;1.00;;;;;29.37;42.35;101990.53;5078960;27;45325;-75
2023/08/20 04:59:45;;;;;;;;;1.67;0.00;;;;;29.39;42.35;101996.50;5060575;28;45415;-75
2023/08/20 05:02:12;;;;;;;;;0.00;0.00;;;;;29.42;42.27;102002.47;5078851;27;45552;-76
2023/08/20 05:04:38;;;;;;;;;0.00;0.00;;;;;29.28;42.01;101981.84;5077543;27;47496;-75
2023/08/20 05:07:03;;;;;;;;;0.00;0.00;;;;;29.44;42.02;102017.31;5077232;27;45457;-76
2023/08/20 05:09:29;;;;;;;;;1.00;1.00;;;;;29.43;42.63;102012.19;5078243;27;45331;-76
2023/08/20 05:11:54;;;;;;;;;0.33;0.33;;;;;29.38;42.33;102012.78;5078682;27;45487;-76
2023/08/20 05:14:20;;;;;;;;;0.67;0.67;;;;;29.43;42.16;102012.19;5060033;27;48015;-75
2023/08/20 05:16:45;;;;;;;;;0.33;0.33;;;;;29.46;42.37;102015.25;5078645;27;45359;-76
2023/08/20 05:19:10;;;;;;;;;1.00;1.00;;;;;29.48;42.23;102020.44;5060733;28;45245;-75
2023/08/20 05:21:36;;;;;;;;;0.33;0.33;;;;;29.50;42.32;102024.56;5078003;27;45280;-76
2023/08/20 05:24:01;;;;;;;;;1.00;1.00;;;;;29.50;42.14;102026.41;5078739;27;46109;-76
2023/08/20 05:26:27;;;;;;;;;0.00;0.00;;;;;29.55;42.15;102034.69;5060724;28;45372;-75
2023/08/20 05:28:52;;;;;;;;;1.00;1.00;;;;;29.57;42.00;102032.63;5078132;27;45636;-76
2023/08/20 05:31:17;;;;;;;;;0.67;0.67;;;;;29.58;42.01;102030.75;5059903;28;45593;-76
2023/08/20 05:33:42;;;;;;;;;0.00;0.00;;;;;29.60;41.95;102037.56;5060150;27;48065;-75
2023/08/20 05:36:08;;;;;;;;;0.00;0.00;;;;;29.62;42.23;102032.00;5060062;28;45463;-76
2023/08/20 05:38:33;;;;;;;;;0.00;0.00;;;;;29.60;41.60;102034.91;5060472;28;45293;-76
2023/08/20 05:40:58;;;;;;;;;0.00;0.00;;;;;29.63;42.11;102030.97;5078391;28;45473;-76
2023/08/20 05:43:24;;;;;;;;;0.00;0.00;;;;;29.63;41.91;102022.94;5078280;27;46298;-76
2023/08/20 05:45:49;;;;;;;;;2.00;1.00;;;;;29.68;42.03;102025.84;5078146;27;45292;-75
2023/08/20 05:48:15;;;;;;;;;0.00;0.00;;;;;29.78;42.20;102030.00;5060079;27;45289;-75
2023/08/20 05:50:41;;;;;;;;;0.00;0.00;;;;;29.85;41.59;102031.66;5059713;28;45681;-76
2023/08/20 05:53:06;;;;;;;;;1.00;1.00;;;;;29.89;41.70;102020.50;5077778;27;47176;-76
2023/08/20 05:55:31;;;;;;;;;0.00;0.00;;;;;30.00;41.75;102025.28;5077920;28;45550;-76
2023/08/20 05:57:57;;;;;;;;;2.00;2.00;;;;;30.07;41.63;102031.44;5059709;28;45356;-76
2023/08/20 06:00:22;;;;;;;;;0.00;0.00;;;;;30.10;41.24;102024.84;5076882;27;45368;-76
2023/08/20 06:02:47;;;;;;;;;0.67;0.67;;;;;30.11;41.23;102033.72;5076456;27;47822;-76
2023/08/20 06:05:13;;;;;;;;;1.00;1.00;;;;;30.18;40.92;102030.00;5059320;28;45693;-76
2023/08/20 06:07:39;;;;;;;;;0.33;0.00;;;;;30.28;41.23;102036.81;5076811;28;45655;-76
2023/08/20 06:10:05;;;;;;;;;1.00;1.00;;;;;30.35;40.97;102034.97;5077215;27;45517;-76
2023/08/20 06:12:31;;;;;;;;;0.00;0.00;;;;;30.46;40.58;102040.72;5058086;28;45655;-76
2023/08/20 06:14:56;;;;;;;;;1.00;1.00;;;;;30.51;40.60;102030.19;5058634;27;45530;-76
2023/08/20 06:17:21;;;;;;;;;1.67;0.67;;;;;30.59;41.06;102032.66;5059020;28;45764;-76
2023/08/20 06:19:47;;;;;;;;;1.00;1.00;;;;;30.63;40.71;102027.66;5059010;28;45364;-76
2023/08/20 06:22:12;;;;;;;;;0.67;0.67;;;;;30.74;40.37;102035.06;5059302;28;48577;-75
2023/08/20 06:24:37;;;;;;;;;1.00;0.00;;;;;30.89;40.58;102035.88;5059530;28;45411;-76
2023/08/20 06:27:03;;;;;;;;;1.00;1.00;;;;;31.05;40.30;102042.63;5059311;28;45348;-75
2023/08/20 06:29:28;;;;;;;;;0.00;0.00;;;;;31.17;39.80;102049.00;5059019;27;45570;-76
2023/08/20 06:31:54;;;;;;;;;1.67;1.00;;;;;31.33;39.41;102043.34;5078364;27;45561;-76
2023/08/20 06:34:19;;;;;;;;;0.67;0.00;;;;;31.54;39.28;102049.44;5081178;27;45411;-76
2023/08/20 06:36:45;;;;;;;;;0.00;0.00;;;;;31.61;39.52;102052.91;5077701;27;45565;-76
2023/08/20 06:39:10;;;;;;;;;0.00;0.00;;;;;31.65;39.10;102050.59;5058714;28;45475;-76
2023/08/20 06:41:36;;;;;;;;;0.00;0.00;;;;;31.64;39.32;102051.66;5058284;28;48071;-76
2023/08/20 06:44:02;;;;;;;;;0.00;0.00;;;;;31.62;38.98;102057.22;5077344;27;45465;-76
2023/08/20 06:46:28;;;;;;;;;0.00;0.00;;;;;31.56;39.21;102056.25;5077394;28;45415;-76
2023/08/20 06:48:53;;;;;;;;;0.00;0.00;;;;;31.56;39.35;102063.50;5076881;28;45375;-76
2023/08/20 06:51:21;;;;;;;;;0.33;0.33;;;;;31.50;39.34;102055.22;5076994;28;46358;-76
2023/08/20 06:53:47;;;;;;;;;0.00;0.00;;;;;31.60;39.17;102065.53;5077028;27;45424;-76
2023/08/20 06:56:12;;;;;;;;;0.00;0.00;;;;;31.76;38.57;102063.34;5077127;28;45280;-76
2023/08/20 06:58:40;;;;;;;;;0.00;0.00;;;;;31.79;38.95;102062.94;5077120;28;45231;-76
2023/08/20 07:01:08;;;;;;;;;0.00;0.00;;;;;31.81;39.31;102060.84;5076942;27;45568;-75
2023/08/20 07:03:41;;;;;;;;;0.00;0.00;;;;;31.86;38.90;102060.16;5076635;27;45610;-76
2023/08/20 07:06:09;;;;;;;;;0.00;0.00;;;;;31.94;38.76;102061.75;5077166;28;45372;-76
2023/08/20 07:08:34;;;;;;;;;1.67;0.00;;;;;31.87;38.90;102051.06;5076984;27;45470;-76
2023/08/20 07:11:00;;;;;;;;;0.33;0.33;;;;;32.01;38.13;102064.41;5076413;27;46572;-76
2023/08/20 07:13:25;;;;;;;;;0.33;0.33;;;;;32.03;38.63;102062.31;5076702;28;45435;-76
2023/08/20 07:15:51;;;;;;;;;0.00;0.00;;;;;32.02;38.51;102064.19;5076974;27;45234;-76
2023/08/20 07:18:16;;;;;;;;;0.67;0.67;;;;;31.95;38.48;102063.44;5058460;28;45498;-76
2023/08/20 07:20:45;;;;;;;;;0.00;0.00;;;;;31.92;38.22;102062.00;5076729;27;45288;-76
2023/08/20 07:23:11;;;;;;;;;1.00;0.00;;;;;31.83;38.64;102068.66;5058522;28;45293;-75
2023/08/20 07:25:38;;;;;;;;;0.00;0.00;;;;;31.71;38.68;102065.88;5058500;28;45351;-76
2023/08/20 07:28:04;;;;;;;;;0.00;0.00;;;;;31.68;38.71;102069.00;5058343;28;45516;-75
2023/08/20 07:30:30;;;;;;;;;0.00;0.00;;;;;31.59;38.66;102065.75;5058213;28;46645;-76
2023/08/20 07:32:56;;;;;;;;;0.33;0.33;;;;;31.58;38.86;102069.47;5076181;27;45550;-76
2023/08/20 07:35:21;;;;;;;;;0.00;0.00;;;;;31.53;38.97;102072.00;5076625;27;45369;-76
2023/08/20 07:37:47;;;;;;;;;0.67;0.33;;;;;31.47;39.17;102065.56;5058204;28;45586;-76
2023/08/20 07:40:13;;;;;;;;;0.00;0.00;;;;;31.42;39.41;102068.91;5076399;27;46519;-75
2023/08/20 07:42:40;;;;;;;;;0.00;0.00;;;;;31.42;39.50;102068.91;5076378;28;45503;-76
2023/08/20 07:45:07;;;;;;;;;0.00;0.00;;;;;31.35;39.31;102060.06;5076749;27;45418;-76
2023/08/20 07:47:32;;;;;;;;;0.00;0.00;;;;;31.27;39.48;102059.28;5076108;27;45589;-76
2023/08/20 07:49:58;;;;;;;;;0.00;0.00;;;;;31.27;39.27;102061.97;5076176;27;45442;-76
2023/08/20 07:52:23;;;;;;;;;1.00;1.00;;;;;31.27;39.32;102067.34;5075887;28;45431;-76
2023/08/20 07:54:48;;;;;;;;;0.00;0.00;;;;;31.28;39.72;102082.41;5058070;28;45476;-76
2023/08/20 07:57:14;;;;;;;;;0.00;0.00;;;;;31.24;39.36;102064.25;5076328;28;45361;-76
2023/08/20 07:59:39;;;;;;;;;0.00;0.00;;;;;31.21;39.79;102076.25;5076128;27;46220;-76
2023/08/20 08:02:05;;;;;;;;;0.00;0.00;;;;;31.23;39.61;102070.69;5074501;28;45342;-75
2023/08/20 08:04:30;;;;;;;;;0.00;0.00;;;;;31.16;39.42;102066.16;5076374;27;45410;-76
2023/08/20 08:06:56;;;;;;;;;0.00;0.00;;;;;31.16;39.55;102062.63;5057903;28;45635;-76
2023/08/20 08:09:27;;;;;;;;;0.00;0.00;;;;;31.15;39.79;102069.06;5075776;27;46331;-76
2023/08/20 08:11:53;;;;;;;;;0.00;0.00;;;;;31.16;39.76;102062.63;5075928;28;45440;-76
2023/08/20 08:14:18;;;;;;;;;0.33;0.00;;;;;31.13;39.76;102063.88;5075346;27;46081;-76
2023/08/20 08:16:45;;;;;;;;;0.67;0.67;;;;;31.14;39.69;102067.41;5075222;28;45536;-76
2023/08/20 08:19:11;;;;;;;;;0.67;0.67;;;;;31.13;39.82;102071.13;5079765;28;46428;-75
2023/08/20 08:21:36;;;;;;;;;0.00;0.00;;;;;31.10;39.77;102068.88;5100057;27;45340;-76
2023/08/20 08:24:02;;;;;;;;;0.00;0.00;;;;;31.10;39.71;102061.63;5069394;27;45479;-76
2023/08/20 08:26:28;;;;;;;;;0.00;0.00;;;;;31.09;39.73;102069.91;5075923;28;45321;-76
2023/08/20 08:28:53;;;;;;;;;0.33;0.00;;;;;31.05;39.75;102058.75;5057397;28;48377;-76
2023/08/20 08:31:19;;;;;;;;;0.00;0.00;;;;;31.09;39.62;102062.69;5057551;28;45505;-76
2023/08/20 08:33:44;;;;;;;;;0.00;0.00;;;;;31.09;40.07;102067.22;5057930;28;45349;-76
2023/08/20 08:36:11;;;;;;;;;1.00;1.00;;;;;31.06;40.09;102063.09;5075884;28;45406;-76
2023/08/20 08:38:36;;;;;;;;;0.00;0.00;;;;;31.10;39.85;102066.19;5075694;28;46650;-76
2023/08/20 08:41:03;;;;;;;;;0.00;0.00;;;;;31.05;39.78;102051.53;5057452;28;45222;-76
2023/08/20 08:43:31;;;;;;;;;0.00;0.00;;;;;31.06;40.01;102050.50;5057629;28;45479;-76
2023/08/20 08:45:57;;;;;;;;;1.33;0.00;;;;;31.09;39.55;102057.31;5075394;28;45458;-76
2023/08/20 08:48:22;;;;;;;;;0.00;0.00;;;;;31.07;40.20;102049.44;5075403;28;45505;-76
2023/08/20 08:50:50;;;;;;;;;0.00;0.00;;;;;31.07;39.96;102048.63;5075475;28;45411;-76
2023/08/20 08:53:16;;;;;;;;;2.00;0.00;;;;;31.09;40.11;102057.31;5075509;28;45360;-76
2023/08/20 08:55:41;;;;;;;;;0.00;0.00;;;;;31.09;39.71;102056.47;5075415;28;45476;-77
2023/08/20 08:58:06;;;;;;;;;0.67;0.67;;;;;31.07;40.07;102056.69;5073839;28;47731;-76
2023/08/20 09:00:32;;;;;;;;;0.00;0.00;;;;;31.10;40.06;102058.94;5073924;27;45310;-76
2023/08/20 09:02:58;;;;;;;;;1.33;0.33;;;;;31.06;40.32;102058.56;5075589;27;45325;-76
2023/08/20 09:05:24;;;;;;;;;0.33;0.33;;;;;31.04;40.21;102049.06;5059766;28;45531;-76
2023/08/20 09:07:56;;;;;;;;;0.00;0.00;;;;;31.05;40.06;102045.31;5060634;28;47006;-76
2023/08/20 09:10:25;;;;;;;;;0.00;0.00;;;;;31.09;40.10;102054.63;5060250;28;45284;-76
2023/08/20 09:12:54;;;;;;;;;0.00;0.00;;;;;31.08;39.48;102044.88;5060228;28;45316;-75
2023/08/20 09:15:19;;;;;;;;;0.33;0.33;;;;;31.05;40.42;102048.84;5078488;27;45293;-75
2023/08/20 09:17:46;;;;;;;;;0.00;0.00;;;;;31.06;40.07;102050.50;5060304;28;45536;-76
2023/08/20 09:20:11;;;;;;;;;0.00;0.00;;;;;30.97;39.91;102035.63;5078733;27;45399;-76
2023/08/20 09:22:37;;;;;;;;;0.00;0.00;;;;;31.10;40.22;102052.75;5078968;27;45315;-76
2023/08/20 09:25:03;;;;;;;;;0.00;0.00;;;;;31.09;40.11;102043.03;5077838;27;45572;-76
2023/08/20 09:27:28;;;;;;;;;1.67;1.00;;;;;31.04;40.09;102047.19;5077776;27;46857;-76
2023/08/20 09:29:57;;;;;;;;;1.00;1.00;;;;;31.03;40.01;102042.03;5059878;28;45737;-76
2023/08/20 09:32:25;;;;;;;;;2.00;0.00;;;;;31.07;40.10;102040.56;5077615;27;45489;-76
2023/08/20 09:34:52;;;;;;;;;0.00;0.00;;;;;31.06;39.95;102041.59;5060225;28;45395;-76
2023/08/20 09:37:19;;;;;;;;;0.00;0.00;;;;;31.05;40.27;102040.75;5077770;27;46333;-76
2023/08/20 09:39:45;;;;;;;;;0.33;0.33;;;;;31.06;40.26;102036.22;5060003;28;45328;-76
2023/08/20 09:42:12;;;;;;;;;2.00;1.00;;;;;31.05;40.45;102039.94;5077778;27;45304;-76
2023/08/20 09:44:39;;;;;;;;;0.00;0.00;;;;;31.06;40.18;102036.22;5078554;28;45304;-76
2023/08/20 09:47:12;;;;;;;;;1.00;0.00;;;;;31.04;40.14;102033.75;5077472;28;46414;-76
2023/08/20 09:49:48;;;;;;;;;0.00;0.00;;;;;31.02;40.50;102038.50;5078209;27;45444;-76
2023/08/20 09:52:24;;;;;;;;;0.33;0.33;;;;;30.99;40.52;102027.38;5077769;28;45282;-76
2023/08/20 09:55:05;;;;;;;;;0.00;0.00;;;;;30.93;40.17;102019.13;5078002;27;45280;-76
2023/08/20 09:57:39;;;;;;;;;1.00;1.00;;;;;31.00;40.21;102032.53;5059448;28;48383;-76
2023/08/20 10:00:09;;;;;;;;;0.00;0.00;;;;;30.95;40.50;102024.28;5077861;27;45439;-76
2023/08/20 10:02:35;;;;;;;;;0.00;0.00;;;;;30.91;39.81;102020.34;5078086;28;45285;-76
2023/08/20 10:05:02;;;;;;;;;0.00;0.00;;;;;30.95;40.17;102029.66;5076562;28;45651;-75
2023/08/20 10:07:32;;;;;;;;;0.33;0.00;;;;;30.95;40.08;102037.72;5077942;28;46620;-76
2023/08/20 10:10:00;;;;;;;;;0.67;0.67;;;;;30.93;40.14;102035.25;5077683;27;45538;-76
2023/08/20 10:12:29;;;;;;;;;0.00;0.00;;;;;30.92;40.46;102030.88;5077371;27;45400;-75
2023/08/20 10:14:56;;;;;;;;;0.00;0.00;;;;;30.87;40.21;102022.63;5059579;28;45345;-76
2023/08/20 10:17:23;;;;;;;;;0.00;0.00;;;;;30.91;40.54;102034.59;5076577;28;45293;-76
2023/08/20 10:19:48;;;;;;;;;0.00;0.00;;;;;30.88;40.06;102028.81;5077801;27;45251;-75
2023/08/20 10:22:14;;;;;;;;;0.33;0.33;;;;;30.85;40.84;102022.84;5077651;28;45300;-76
2023/08/20 10:24:53;;;;;;;;;2.00;0.00;;;;;30.87;40.35;102035.22;5059618;28;45389;-76
2023/08/20 10:27:32;;;;;;;;;0.33;0.33;;;;;30.84;40.47;102031.09;5077005;28;46484;-76
2023/08/20 10:30:01;;;;;;;;;0.33;0.33;;;;;30.89;40.75;102035.88;5077586;27;45386;-76
2023/08/20 10:32:46;;;;;;;;;0.67;0.67;;;;;30.87;40.46;102037.91;5059232;28;45447;-76
2023/08/20 10:35:12;;;;;;;;;0.00;0.00;;;;;30.82;40.24;102027.81;5059443;28;45314;-76
2023/08/20 10:37:40;;;;;;;;;0.00;0.00;;;;;30.81;40.68;102023.50;5059141;27;47585;-76
2023/08/20 10:40:06;;;;;;;;;0.33;0.33;;;;;30.84;40.66;102033.78;5077048;27;45336;-76
2023/08/20 10:42:41;;;;;;;;;0.00;0.00;;;;;30.83;40.84;102027.63;5077555;28;45245;-76
2023/08/20 10:45:08;;;;;;;;;2.00;0.00;;;;;30.78;41.09;102024.75;5077503;27;45516;-76
2023/08/20 10:47:43;;;;;;;;;0.00;0.00;;;;;30.79;41.06;102028.22;5076539;28;45616;-76
2023/08/20 10:50:11;;;;;;;;;0.00;0.00;;;;;30.73;41.02;102014.59;5058974;28;45888;-76
2023/08/20 10:52:55;;;;;;;;;1.00;1.00;;;;;30.76;40.23;102024.09;5055606;28;45333;-76
2023/08/20 10:55:24;;;;;;;;;0.00;0.00;;;;;30.72;40.44;102031.78;5056727;28;45305;-76
2023/08/20 10:57:59;;;;;;;;;1.00;0.00;;;;;30.73;40.92;102025.34;5055401;28;48416;-76
2023/08/20 11:00:24;;;;;;;;;0.00;0.00;;;;;30.71;40.81;102016.69;5056691;28;45455;-76
2023/08/20 11:02:51;;;;;;;;;0.00;0.00;;;;;30.73;40.51;102028.03;5056834;28;45375;-76
2023/08/20 11:05:18;;;;;;;;;0.00;0.00;;;;;30.73;40.88;102021.88;5056797;28;45304;-76
2023/08/20 11:07:48;;;;;;;;;0.00;0.00;;;;;30.72;41.00;102026.41;5038521;28;46167;-76
2023/08/20 11:10:16;;;;;;;;;1.00;0.00;;;;;30.69;41.02;102021.44;5067790;27;45431;-76
2023/08/20 11:12:46;;;;;;;;;0.67;0.67;;;;;30.71;40.92;102021.22;5076905;28;45470;-76
2023/08/20 11:15:11;;;;;;;;;1.00;1.00;;;;;30.70;40.60;102024.97;5076817;27;45590;-76
2023/08/20 11:17:55;;;;;;;;;0.00;0.00;;;;;30.70;40.84;102019.59;5058493;27;47373;-76
2023/08/20 11:20:20;;;;;;;;;0.33;0.33;;;;;30.71;40.96;102018.53;5076081;28;45443;-76
2023/08/20 11:22:46;;;;;;;;;1.00;1.00;;;;;30.67;40.71;102015.47;5058153;27;45550;-75